VOHY/HYD METAR and TAF weather

Enter ICAO airport designator
Station Type Date Time Source
VOHY METAR 2019/08/22 09:00 UTC NOAA

VOHY 220900Z 29006KT 6000 SCT015 SCT025 32/25 Q1007 NOSIG


Station Type Date Time Source
VOHY Decoded METAR 2019/08/22 09:00 UTC NOAA

Station name not available
Aug 22, 2019 - 05:00 AM EDT / 2019.08.22 0900 UTC
Wind: from the WNW (290 degrees) at 7 MPH (6 KT):0
Visibility: 3 mile(s):0
Sky conditions: partly cloudy
Temperature: 89 F (32 C)
Heat index: 100.6 F (38.1 C):1
Dew Point: 77 F (25 C)
Relative Humidity: 66%
Pressure (altimeter): 29.74 in. Hg (1007 hPa)
ob: VOHY 220900Z 29006KT 6000 SCT015 SCT025 32/25 Q1007 NOSIG
cycle: 9

Station Type Date Time Source
VOHY TAF 2019/08/13 12:00 UTC NOAA

TAF VOHY 131100Z 1312/1321 27010KT 5000 BR SCT015 BKN100
TEMPO 1312/1318 25008KT 4000 BR -RA SCT010 SCT025 FEW030TCU BKN080
TEMPO 1318/1403 22008KT 4000 -RA HZ FEW030TCU BKN080

Example: see airport list